sensor_id;sensor_type;location;lat;lon;timestamp;P1;durP1;ratioP1;P2;durP2;ratioP2
20456;SDS011;10387;51.102;6.848;2023-02-18T00:02:02;17.50;;;12.77;;
20456;SDS011;10387;51.102;6.848;2023-02-18T00:04:29;17.20;;;12.87;;
20456;SDS011;10387;51.102;6.848;2023-02-18T00:06:55;16.53;;;12.43;;
20456;SDS011;10387;51.102;6.848;2023-02-18T00:09:20;16.90;;;12.50;;
20456;SDS011;10387;51.102;6.848;2023-02-18T00:11:46;17.27;;;13.23;;
20456;SDS011;10387;51.102;6.848;2023-02-18T00:14:13;16.50;;;12.87;;
20456;SDS011;10387;51.102;6.848;2023-02-18T00:16:40;17.40;;;13.57;;
20456;SDS011;10387;51.102;6.848;2023-02-18T00:19:09;18.77;;;13.67;;
20456;SDS011;10387;51.102;6.848;2023-02-18T00:21:40;19.00;;;14.00;;
20456;SDS011;10387;51.102;6.848;2023-02-18T00:24:06;18.07;;;14.03;;
20456;SDS011;10387;51.102;6.848;2023-02-18T00:26:33;15.47;;;12.87;;
20456;SDS011;10387;51.102;6.848;2023-02-18T00:28:59;18.73;;;13.97;;
20456;SDS011;10387;51.102;6.848;2023-02-18T00:31:28;17.97;;;13.70;;
20456;SDS011;10387;51.102;6.848;2023-02-18T00:33:58;18.60;;;13.43;;
20456;SDS011;10387;51.102;6.848;2023-02-18T00:36:26;18.90;;;14.33;;
20456;SDS011;10387;51.102;6.848;2023-02-18T00:38:55;21.53;;;15.43;;
20456;SDS011;10387;51.102;6.848;2023-02-18T00:41:23;19.17;;;14.60;;
20456;SDS011;10387;51.102;6.848;2023-02-18T00:43:50;19.37;;;12.97;;
20456;SDS011;10387;51.102;6.848;2023-02-18T00:46:18;19.50;;;15.17;;
20456;SDS011;10387;51.102;6.848;2023-02-18T00:48:44;19.10;;;14.33;;
20456;SDS011;10387;51.102;6.848;2023-02-18T00:51:10;19.73;;;14.43;;
20456;SDS011;10387;51.102;6.848;2023-02-18T00:53:37;18.70;;;13.93;;
20456;SDS011;10387;51.102;6.848;2023-02-18T00:56:04;18.70;;;13.50;;
20456;SDS011;10387;51.102;6.848;2023-02-18T00:58:30;19.43;;;14.63;;
20456;SDS011;10387;51.102;6.848;2023-02-18T01:00:57;18.47;;;14.20;;
20456;SDS011;10387;51.102;6.848;2023-02-18T01:03:23;19.37;;;13.37;;
20456;SDS011;10387;51.102;6.848;2023-02-18T01:05:49;19.30;;;13.40;;
20456;SDS011;10387;51.102;6.848;2023-02-18T01:08:16;17.10;;;12.83;;
20456;SDS011;10387;51.102;6.848;2023-02-18T01:10:43;16.97;;;12.87;;
20456;SDS011;10387;51.102;6.848;2023-02-18T01:13:12;16.70;;;12.70;;
20456;SDS011;10387;51.102;6.848;2023-02-18T01:15:39;16.83;;;12.47;;
20456;SDS011;10387;51.102;6.848;2023-02-18T01:18:06;15.97;;;10.87;;
20456;SDS011;10387;51.102;6.848;2023-02-18T01:20:33;16.23;;;12.20;;
20456;SDS011;10387;51.102;6.848;2023-02-18T01:23:03;15.97;;;11.60;;
20456;SDS011;10387;51.102;6.848;2023-02-18T01:25:29;15.07;;;11.17;;
20456;SDS011;10387;51.102;6.848;2023-02-18T01:27:55;15.50;;;11.60;;
20456;SDS011;10387;51.102;6.848;2023-02-18T01:30:21;15.30;;;10.63;;
20456;SDS011;10387;51.102;6.848;2023-02-18T01:32:47;13.60;;;10.70;;
20456;SDS011;10387;51.102;6.848;2023-02-18T01:35:17;12.63;;;9.90;;
20456;SDS011;10387;51.102;6.848;2023-02-18T01:37:44;15.17;;;10.60;;
20456;SDS011;10387;51.102;6.848;2023-02-18T01:40:15;12.73;;;9.37;;
20456;SDS011;10387;51.102;6.848;2023-02-18T01:42:43;12.20;;;9.33;;
20456;SDS011;10387;51.102;6.848;2023-02-18T01:48:10;11.00;;;8.73;;
20456;SDS011;10387;51.102;6.848;2023-02-18T01:53:40;11.33;;;7.97;;
20456;SDS011;10387;51.102;6.848;2023-02-18T01:56:13;9.77;;;7.23;;
20456;SDS011;10387;51.102;6.848;2023-02-18T01:58:43;9.93;;;7.53;;
20456;SDS011;10387;51.102;6.848;2023-02-18T02:01:09;10.20;;;7.47;;
20456;SDS011;10387;51.102;6.848;2023-02-18T02:03:35;9.40;;;7.60;;
20456;SDS011;10387;51.102;6.848;2023-02-18T02:06:01;10.50;;;8.13;;
20456;SDS011;10387;51.102;6.848;2023-02-18T02:08:27;10.47;;;7.73;;
20456;SDS011;10387;51.102;6.848;2023-02-18T02:16:19;12.07;;;8.87;;
20456;SDS011;10387;51.102;6.848;2023-02-18T02:19:10;13.60;;;9.20;;
20456;SDS011;10387;51.102;6.848;2023-02-18T02:22:00;10.83;;;8.27;;
20456;SDS011;10387;51.102;6.848;2023-02-18T02:27:34;16.07;;;9.70;;
20456;SDS011;10387;51.102;6.848;2023-02-18T02:40:28;13.37;;;9.43;;
20456;SDS011;10387;51.102;6.848;2023-02-18T02:45:43;15.83;;;10.20;;
20456;SDS011;10387;51.102;6.848;2023-02-18T02:48:32;11.63;;;8.50;;
20456;SDS011;10387;51.102;6.848;2023-02-18T02:51:22;14.57;;;9.40;;
20456;SDS011;10387;51.102;6.848;2023-02-18T02:56:45;12.93;;;9.47;;
20456;SDS011;10387;51.102;6.848;2023-02-18T02:59:14;11.13;;;8.60;;
20456;SDS011;10387;51.102;6.848;2023-02-18T03:12:22;12.80;;;9.43;;
20456;SDS011;10387;51.102;6.848;2023-02-18T03:15:01;13.60;;;9.23;;
20456;SDS011;10387;51.102;6.848;2023-02-18T03:17:45;12.63;;;9.20;;
20456;SDS011;10387;51.102;6.848;2023-02-18T03:20:34;11.37;;;8.13;;
20456;SDS011;10387;51.102;6.848;2023-02-18T03:23:09;12.13;;;8.70;;
20456;SDS011;10387;51.102;6.848;2023-02-18T03:25:40;11.17;;;8.53;;
20456;SDS011;10387;51.102;6.848;2023-02-18T03:28:08;11.50;;;8.50;;
20456;SDS011;10387;51.102;6.848;2023-02-18T03:30:40;12.37;;;9.70;;
20456;SDS011;10387;51.102;6.848;2023-02-18T03:33:10;12.20;;;10.13;;
20456;SDS011;10387;51.102;6.848;2023-02-18T03:35:42;12.13;;;9.20;;
20456;SDS011;10387;51.102;6.848;2023-02-18T03:40:50;12.93;;;10.23;;
20456;SDS011;10387;51.102;6.848;2023-02-18T03:43:17;13.77;;;10.17;;
20456;SDS011;10387;51.102;6.848;2023-02-18T03:45:43;15.43;;;11.27;;
20456;SDS011;10387;51.102;6.848;2023-02-18T03:48:08;16.23;;;12.23;;
20456;SDS011;10387;51.102;6.848;2023-02-18T03:50:34;20.07;;;13.27;;
20456;SDS011;10387;51.102;6.848;2023-02-18T03:53:00;16.47;;;11.07;;
20456;SDS011;10387;51.102;6.848;2023-02-18T03:55:25;16.63;;;12.50;;
20456;SDS011;10387;51.102;6.848;2023-02-18T03:57:51;17.83;;;12.27;;
20456;SDS011;10387;51.102;6.848;2023-02-18T04:00:17;18.10;;;12.43;;
20456;SDS011;10387;51.102;6.848;2023-02-18T04:02:43;16.27;;;11.47;;
20456;SDS011;10387;51.102;6.848;2023-02-18T04:05:08;15.27;;;11.07;;
20456;SDS011;10387;51.102;6.848;2023-02-18T04:07:34;17.30;;;11.90;;
20456;SDS011;10387;51.102;6.848;2023-02-18T04:10:00;16.80;;;11.60;;
20456;SDS011;10387;51.102;6.848;2023-02-18T04:12:26;16.70;;;11.47;;
20456;SDS011;10387;51.102;6.848;2023-02-18T04:14:52;15.17;;;11.30;;
20456;SDS011;10387;51.102;6.848;2023-02-18T04:17:17;15.27;;;10.50;;
20456;SDS011;10387;51.102;6.848;2023-02-18T04:19:44;14.63;;;9.60;;
20456;SDS011;10387;51.102;6.848;2023-02-18T04:22:09;15.33;;;9.63;;
20456;SDS011;10387;51.102;6.848;2023-02-18T04:24:35;12.60;;;8.30;;
20456;SDS011;10387;51.102;6.848;2023-02-18T04:27:39;8.60;;;6.30;;
20456;SDS011;10387;51.102;6.848;2023-02-18T04:30:08;8.27;;;5.83;;
20456;SDS011;10387;51.102;6.848;2023-02-18T04:32:34;8.87;;;5.93;;
20456;SDS011;10387;51.102;6.848;2023-02-18T04:35:00;8.83;;;5.50;;
20456;SDS011;10387;51.102;6.848;2023-02-18T04:37:27;6.93;;;5.23;;
20456;SDS011;10387;51.102;6.848;2023-02-18T04:39:52;6.03;;;4.53;;
20456;SDS011;10387;51.102;6.848;2023-02-18T04:42:18;6.87;;;4.77;;
20456;SDS011;10387;51.102;6.848;2023-02-18T04:44:44;5.77;;;4.30;;
20456;SDS011;10387;51.102;6.848;2023-02-18T04:47:09;6.80;;;4.17;;
20456;SDS011;10387;51.102;6.848;2023-02-18T04:49:35;5.63;;;4.30;;
20456;SDS011;10387;51.102;6.848;2023-02-18T04:52:01;6.40;;;4.50;;
20456;SDS011;10387;51.102;6.848;2023-02-18T04:54:27;5.20;;;3.60;;
20456;SDS011;10387;51.102;6.848;2023-02-18T04:56:53;5.90;;;4.10;;
20456;SDS011;10387;51.102;6.848;2023-02-18T04:59:19;4.53;;;3.50;;
20456;SDS011;10387;51.102;6.848;2023-02-18T05:01:44;4.47;;;3.30;;
20456;SDS011;10387;51.102;6.848;2023-02-18T05:04:10;4.50;;;3.60;;
20456;SDS011;10387;51.102;6.848;2023-02-18T05:06:36;4.53;;;3.87;;
20456;SDS011;10387;51.102;6.848;2023-02-18T05:09:04;6.13;;;4.23;;
20456;SDS011;10387;51.102;6.848;2023-02-18T05:11:30;5.53;;;3.70;;
20456;SDS011;10387;51.102;6.848;2023-02-18T05:13:55;5.13;;;3.93;;
20456;SDS011;10387;51.102;6.848;2023-02-18T05:16:21;5.23;;;4.20;;
20456;SDS011;10387;51.102;6.848;2023-02-18T05:18:47;5.80;;;4.13;;
20456;SDS011;10387;51.102;6.848;2023-02-18T05:21:13;4.97;;;3.63;;
20456;SDS011;10387;51.102;6.848;2023-02-18T05:23:38;5.57;;;4.43;;
20456;SDS011;10387;51.102;6.848;2023-02-18T05:26:04;7.03;;;5.00;;
20456;SDS011;10387;51.102;6.848;2023-02-18T05:28:30;6.37;;;4.97;;
20456;SDS011;10387;51.102;6.848;2023-02-18T05:30:55;7.10;;;5.23;;
20456;SDS011;10387;51.102;6.848;2023-02-18T05:33:22;6.03;;;5.40;;
20456;SDS011;10387;51.102;6.848;2023-02-18T05:35:48;8.33;;;5.90;;
20456;SDS011;10387;51.102;6.848;2023-02-18T05:38:14;8.40;;;5.43;;
20456;SDS011;10387;51.102;6.848;2023-02-18T05:40:39;7.83;;;6.00;;
20456;SDS011;10387;51.102;6.848;2023-02-18T05:43:05;8.73;;;6.97;;
20456;SDS011;10387;51.102;6.848;2023-02-18T05:45:31;10.07;;;7.07;;
20456;SDS011;10387;51.102;6.848;2023-02-18T05:47:56;10.70;;;7.43;;
20456;SDS011;10387;51.102;6.848;2023-02-18T05:50:22;10.67;;;7.77;;
20456;SDS011;10387;51.102;6.848;2023-02-18T05:52:48;9.97;;;7.83;;
20456;SDS011;10387;51.102;6.848;2023-02-18T05:55:13;9.80;;;7.10;;
20456;SDS011;10387;51.102;6.848;2023-02-18T05:57:39;9.50;;;7.00;;
20456;SDS011;10387;51.102;6.848;2023-02-18T06:00:05;8.87;;;6.33;;
20456;SDS011;10387;51.102;6.848;2023-02-18T06:02:33;10.30;;;6.53;;
20456;SDS011;10387;51.102;6.848;2023-02-18T06:05:00;7.77;;;5.70;;
20456;SDS011;10387;51.102;6.848;2023-02-18T06:07:51;8.50;;;6.13;;
20456;SDS011;10387;51.102;6.848;2023-02-18T06:10:20;8.00;;;6.10;;
20456;SDS011;10387;51.102;6.848;2023-02-18T06:12:45;9.17;;;6.60;;
20456;SDS011;10387;51.102;6.848;2023-02-18T06:15:11;8.70;;;6.93;;
20456;SDS011;10387;51.102;6.848;2023-02-18T06:17:37;8.83;;;6.37;;
20456;SDS011;10387;51.102;6.848;2023-02-18T06:20:02;8.30;;;6.30;;
20456;SDS011;10387;51.102;6.848;2023-02-18T06:22:28;8.10;;;6.43;;
20456;SDS011;10387;51.102;6.848;2023-02-18T06:24:54;9.23;;;6.53;;
20456;SDS011;10387;51.102;6.848;2023-02-18T06:27:19;8.13;;;6.50;;
20456;SDS011;10387;51.102;6.848;2023-02-18T06:29:45;7.97;;;5.97;;
20456;SDS011;10387;51.102;6.848;2023-02-18T06:32:11;8.80;;;5.73;;
20456;SDS011;10387;51.102;6.848;2023-02-18T06:34:37;7.07;;;5.57;;
20456;SDS011;10387;51.102;6.848;2023-02-18T06:37:02;6.37;;;4.67;;
20456;SDS011;10387;51.102;6.848;2023-02-18T06:39:28;5.97;;;5.20;;
20456;SDS011;10387;51.102;6.848;2023-02-18T06:41:54;6.27;;;4.90;;
20456;SDS011;10387;51.102;6.848;2023-02-18T06:44:19;6.00;;;5.13;;
20456;SDS011;10387;51.102;6.848;2023-02-18T06:46:45;5.20;;;4.70;;
20456;SDS011;10387;51.102;6.848;2023-02-18T06:49:11;6.10;;;4.83;;
20456;SDS011;10387;51.102;6.848;2023-02-18T06:51:36;4.10;;;3.70;;
20456;SDS011;10387;51.102;6.848;2023-02-18T06:54:02;4.67;;;4.17;;
20456;SDS011;10387;51.102;6.848;2023-02-18T06:56:29;6.50;;;4.40;;
20456;SDS011;10387;51.102;6.848;2023-02-18T06:58:55;4.60;;;3.90;;
20456;SDS011;10387;51.102;6.848;2023-02-18T07:01:21;4.33;;;3.53;;
20456;SDS011;10387;51.102;6.848;2023-02-18T07:03:46;4.13;;;3.73;;
20456;SDS011;10387;51.102;6.848;2023-02-18T07:06:12;3.40;;;3.03;;
20456;SDS011;10387;51.102;6.848;2023-02-18T07:08:38;3.20;;;2.90;;
20456;SDS011;10387;51.102;6.848;2023-02-18T07:11:04;3.93;;;2.70;;
20456;SDS011;10387;51.102;6.848;2023-02-18T07:13:30;2.77;;;2.40;;
20456;SDS011;10387;51.102;6.848;2023-02-18T07:15:56;3.70;;;2.63;;
20456;SDS011;10387;51.102;6.848;2023-02-18T07:18:22;2.47;;;1.90;;
20456;SDS011;10387;51.102;6.848;2023-02-18T07:20:47;2.57;;;2.00;;
20456;SDS011;10387;51.102;6.848;2023-02-18T07:23:13;1.70;;;1.57;;
20456;SDS011;10387;51.102;6.848;2023-02-18T07:25:39;2.10;;;1.70;;
20456;SDS011;10387;51.102;6.848;2023-02-18T07:28:05;2.00;;;1.60;;
20456;SDS011;10387;51.102;6.848;2023-02-18T07:30:30;1.73;;;1.63;;
20456;SDS011;10387;51.102;6.848;2023-02-18T07:32:56;1.70;;;1.60;;
20456;SDS011;10387;51.102;6.848;2023-02-18T07:35:23;1.70;;;1.60;;
20456;SDS011;10387;51.102;6.848;2023-02-18T07:37:48;2.07;;;1.70;;
20456;SDS011;10387;51.102;6.848;2023-02-18T07:40:16;1.30;;;1.20;;
20456;SDS011;10387;51.102;6.848;2023-02-18T07:42:44;2.10;;;1.83;;
20456;SDS011;10387;51.102;6.848;2023-02-18T07:45:10;3.07;;;1.90;;
20456;SDS011;10387;51.102;6.848;2023-02-18T07:47:36;2.93;;;2.10;;
20456;SDS011;10387;51.102;6.848;2023-02-18T07:50:02;2.30;;;2.10;;
20456;SDS011;10387;51.102;6.848;2023-02-18T07:52:28;3.33;;;2.03;;
20456;SDS011;10387;51.102;6.848;2023-02-18T07:54:54;2.87;;;2.27;;
20456;SDS011;10387;51.102;6.848;2023-02-18T07:57:20;2.40;;;1.60;;
20456;SDS011;10387;51.102;6.848;2023-02-18T07:59:45;2.30;;;2.10;;
20456;SDS011;10387;51.102;6.848;2023-02-18T08:02:14;2.23;;;1.57;;
20456;SDS011;10387;51.102;6.848;2023-02-18T08:04:43;1.73;;;1.63;;
20456;SDS011;10387;51.102;6.848;2023-02-18T08:07:12;2.30;;;1.47;;
20456;SDS011;10387;51.102;6.848;2023-02-18T08:09:38;2.73;;;1.97;;
20456;SDS011;10387;51.102;6.848;2023-02-18T08:12:04;2.00;;;1.90;;
20456;SDS011;10387;51.102;6.848;2023-02-18T08:14:30;2.97;;;1.80;;
20456;SDS011;10387;51.102;6.848;2023-02-18T08:16:57;2.43;;;1.87;;
20456;SDS011;10387;51.102;6.848;2023-02-18T08:19:23;1.97;;;1.80;;
20456;SDS011;10387;51.102;6.848;2023-02-18T08:21:49;2.83;;;2.10;;
20456;SDS011;10387;51.102;6.848;2023-02-18T08:24:14;3.93;;;2.03;;
20456;SDS011;10387;51.102;6.848;2023-02-18T08:26:40;4.80;;;3.77;;
20456;SDS011;10387;51.102;6.848;2023-02-18T08:29:05;6.23;;;3.53;;
20456;SDS011;10387;51.102;6.848;2023-02-18T08:31:31;9.27;;;6.23;;
20456;SDS011;10387;51.102;6.848;2023-02-18T08:33:58;11.10;;;5.87;;
20456;SDS011;10387;51.102;6.848;2023-02-18T08:36:25;4.90;;;3.50;;
20456;SDS011;10387;51.102;6.848;2023-02-18T08:38:51;9.50;;;5.63;;
20456;SDS011;10387;51.102;6.848;2023-02-18T08:41:17;5.87;;;3.50;;
20456;SDS011;10387;51.102;6.848;2023-02-18T08:43:43;6.47;;;3.73;;
20456;SDS011;10387;51.102;6.848;2023-02-18T08:46:10;7.27;;;3.30;;
20456;SDS011;10387;51.102;6.848;2023-02-18T08:48:35;7.13;;;4.47;;
20456;SDS011;10387;51.102;6.848;2023-02-18T08:51:12;5.80;;;3.33;;
20456;SDS011;10387;51.102;6.848;2023-02-18T08:53:38;7.13;;;2.97;;
20456;SDS011;10387;51.102;6.848;2023-02-18T08:56:05;7.67;;;3.50;;
20456;SDS011;10387;51.102;6.848;2023-02-18T08:58:32;6.07;;;3.23;;
20456;SDS011;10387;51.102;6.848;2023-02-18T09:01:06;7.60;;;2.83;;
20456;SDS011;10387;51.102;6.848;2023-02-18T09:03:33;4.80;;;3.10;;
20456;SDS011;10387;51.102;6.848;2023-02-18T09:05:59;7.43;;;3.00;;
20456;SDS011;10387;51.102;6.848;2023-02-18T09:08:25;6.50;;;3.47;;
20456;SDS011;10387;51.102;6.848;2023-02-18T09:10:55;7.53;;;3.50;;
20456;SDS011;10387;51.102;6.848;2023-02-18T09:13:22;4.20;;;2.73;;
20456;SDS011;10387;51.102;6.848;2023-02-18T09:15:55;11.37;;;3.60;;
20456;SDS011;10387;51.102;6.848;2023-02-18T09:18:22;7.43;;;3.60;;
20456;SDS011;10387;51.102;6.848;2023-02-18T09:20:48;5.60;;;3.07;;
20456;SDS011;10387;51.102;6.848;2023-02-18T09:23:13;6.27;;;3.23;;
20456;SDS011;10387;51.102;6.848;2023-02-18T09:25:39;6.50;;;3.17;;
20456;SDS011;10387;51.102;6.848;2023-02-18T09:28:05;6.47;;;3.40;;
20456;SDS011;10387;51.102;6.848;2023-02-18T09:30:31;7.90;;;3.60;;
20456;SDS011;10387;51.102;6.848;2023-02-18T09:32:56;7.20;;;3.27;;
20456;SDS011;10387;51.102;6.848;2023-02-18T09:35:22;5.97;;;3.83;;
20456;SDS011;10387;51.102;6.848;2023-02-18T09:37:48;6.30;;;3.23;;
20456;SDS011;10387;51.102;6.848;2023-02-18T09:40:25;6.63;;;3.57;;
20456;SDS011;10387;51.102;6.848;2023-02-18T09:42:53;6.83;;;3.67;;
20456;SDS011;10387;51.102;6.848;2023-02-18T09:45:21;9.27;;;4.17;;
20456;SDS011;10387;51.102;6.848;2023-02-18T09:47:48;9.87;;;4.67;;
20456;SDS011;10387;51.102;6.848;2023-02-18T09:50:20;10.67;;;5.23;;
20456;SDS011;10387;51.102;6.848;2023-02-18T09:52:47;7.87;;;4.23;;
20456;SDS011;10387;51.102;6.848;2023-02-18T09:55:15;5.43;;;3.93;;
20456;SDS011;10387;51.102;6.848;2023-02-18T09:58:11;9.83;;;4.33;;
20456;SDS011;10387;51.102;6.848;2023-02-18T10:00:40;6.43;;;3.63;;
20456;SDS011;10387;51.102;6.848;2023-02-18T10:03:16;7.60;;;3.43;;
20456;SDS011;10387;51.102;6.848;2023-02-18T10:06:00;12.20;;;5.03;;
20456;SDS011;10387;51.102;6.848;2023-02-18T10:08:41;8.40;;;4.00;;
20456;SDS011;10387;51.102;6.848;2023-02-18T10:11:16;9.97;;;6.60;;
20456;SDS011;10387;51.102;6.848;2023-02-18T10:13:45;8.80;;;4.17;;
20456;SDS011;10387;51.102;6.848;2023-02-18T10:16:14;8.20;;;4.47;;
20456;SDS011;10387;51.102;6.848;2023-02-18T10:18:48;7.03;;;3.50;;
20456;SDS011;10387;51.102;6.848;2023-02-18T10:21:21;10.30;;;7.60;;
20456;SDS011;10387;51.102;6.848;2023-02-18T10:26:21;9.07;;;5.97;;
20456;SDS011;10387;51.102;6.848;2023-02-18T10:28:47;9.60;;;5.40;;
20456;SDS011;10387;51.102;6.848;2023-02-18T10:31:14;10.90;;;7.13;;
20456;SDS011;10387;51.102;6.848;2023-02-18T10:41:36;10.90;;;4.17;;
20456;SDS011;10387;51.102;6.848;2023-02-18T10:52:20;6.90;;;4.63;;
20456;SDS011;10387;51.102;6.848;2023-02-18T10:57:33;7.97;;;4.50;;
20456;SDS011;10387;51.102;6.848;2023-02-18T11:03:36;8.57;;;4.57;;
20456;SDS011;10387;51.102;6.848;2023-02-18T11:05:40;7.50;;;6.73;;
20456;SDS011;10387;51.102;6.848;2023-02-18T11:08:07;5.77;;;4.37;;
20456;SDS011;10387;51.102;6.848;2023-02-18T11:10:37;6.60;;;4.03;;
20456;SDS011;10387;51.102;6.848;2023-02-18T11:13:07;4.60;;;2.83;;
20456;SDS011;10387;51.102;6.848;2023-02-18T11:15:34;5.50;;;4.10;;
20456;SDS011;10387;51.102;6.848;2023-02-18T11:18:11;6.20;;;5.60;;
20456;SDS011;10387;51.102;6.848;2023-02-18T11:20:38;8.60;;;3.83;;
20456;SDS011;10387;51.102;6.848;2023-02-18T11:25:31;8.43;;;5.40;;
20456;SDS011;10387;51.102;6.848;2023-02-18T11:28:02;6.50;;;5.37;;
20456;SDS011;10387;51.102;6.848;2023-02-18T11:30:42;7.57;;;5.73;;
20456;SDS011;10387;51.102;6.848;2023-02-18T11:35:51;6.47;;;4.73;;
20456;SDS011;10387;51.102;6.848;2023-02-18T11:38:24;6.87;;;4.83;;
20456;SDS011;10387;51.102;6.848;2023-02-18T11:40:54;5.80;;;5.20;;
20456;SDS011;10387;51.102;6.848;2023-02-18T11:43:24;6.00;;;4.90;;
20456;SDS011;10387;51.102;6.848;2023-02-18T11:46:12;5.20;;;4.10;;
20456;SDS011;10387;51.102;6.848;2023-02-18T11:48:42;5.23;;;3.10;;
20456;SDS011;10387;51.102;6.848;2023-02-18T11:51:19;5.20;;;3.87;;
20456;SDS011;10387;51.102;6.848;2023-02-18T11:53:56;4.30;;;3.30;;
20456;SDS011;10387;51.102;6.848;2023-02-18T11:56:30;3.20;;;2.73;;
20456;SDS011;10387;51.102;6.848;2023-02-18T11:58:58;3.73;;;3.00;;
20456;SDS011;10387;51.102;6.848;2023-02-18T12:01:35;6.07;;;5.17;;
20456;SDS011;10387;51.102;6.848;2023-02-18T12:04:14;4.50;;;4.13;;
20456;SDS011;10387;51.102;6.848;2023-02-18T12:07:00;3.70;;;3.27;;
20456;SDS011;10387;51.102;6.848;2023-02-18T12:09:37;7.37;;;6.77;;
20456;SDS011;10387;51.102;6.848;2023-02-18T12:12:13;5.83;;;4.20;;
20456;SDS011;10387;51.102;6.848;2023-02-18T12:14:43;6.07;;;5.13;;
20456;SDS011;10387;51.102;6.848;2023-02-18T12:22:31;7.10;;;6.30;;
20456;SDS011;10387;51.102;6.848;2023-02-18T12:27:55;5.40;;;4.90;;
20456;SDS011;10387;51.102;6.848;2023-02-18T12:36:06;7.77;;;5.60;;
20456;SDS011;10387;51.102;6.848;2023-02-18T12:41:20;4.50;;;3.57;;
20456;SDS011;10387;51.102;6.848;2023-02-18T12:44:03;6.07;;;3.80;;
20456;SDS011;10387;51.102;6.848;2023-02-18T12:46:45;4.20;;;3.23;;
20456;SDS011;10387;51.102;6.848;2023-02-18T13:00:59;4.23;;;3.83;;
20456;SDS011;10387;51.102;6.848;2023-02-18T13:03:49;5.10;;;3.90;;
20456;SDS011;10387;51.102;6.848;2023-02-18T13:06:57;5.47;;;3.83;;
20456;SDS011;10387;51.102;6.848;2023-02-18T13:17:14;6.33;;;3.70;;
20456;SDS011;10387;51.102;6.848;2023-02-18T13:19:46;3.90;;;3.50;;
20456;SDS011;10387;51.102;6.848;2023-02-18T13:22:26;6.37;;;4.47;;
20456;SDS011;10387;51.102;6.848;2023-02-18T13:24:54;7.13;;;4.30;;
20456;SDS011;10387;51.102;6.848;2023-02-18T13:30:22;4.40;;;4.00;;
20456;SDS011;10387;51.102;6.848;2023-02-18T13:36:07;5.03;;;4.03;;
20456;SDS011;10387;51.102;6.848;2023-02-18T13:41:45;4.87;;;4.00;;
20456;SDS011;10387;51.102;6.848;2023-02-18T13:46:51;4.93;;;4.20;;
20456;SDS011;10387;51.102;6.848;2023-02-18T13:49:37;6.63;;;4.30;;
20456;SDS011;10387;51.102;6.848;2023-02-18T13:52:03;6.30;;;4.00;;
20456;SDS011;10387;51.102;6.848;2023-02-18T13:54:36;4.90;;;4.40;;
20456;SDS011;10387;51.102;6.848;2023-02-18T13:57:12;5.50;;;4.00;;
20456;SDS011;10387;51.102;6.848;2023-02-18T13:59:50;4.40;;;4.00;;
20456;SDS011;10387;51.102;6.848;2023-02-18T14:04:48;6.30;;;4.77;;
20456;SDS011;10387;51.102;6.848;2023-02-18T14:09:55;6.97;;;4.17;;
20456;SDS011;10387;51.102;6.848;2023-02-18T14:23:10;5.70;;;4.60;;
20456;SDS011;10387;51.102;6.848;2023-02-18T14:31:01;5.40;;;4.50;;
20456;SDS011;10387;51.102;6.848;2023-02-18T14:33:29;6.30;;;4.93;;
20456;SDS011;10387;51.102;6.848;2023-02-18T14:38:45;5.10;;;4.43;;
20456;SDS011;10387;51.102;6.848;2023-02-18T14:47:43;5.30;;;4.73;;
20456;SDS011;10387;51.102;6.848;2023-02-18T14:50:30;5.40;;;4.70;;
20456;SDS011;10387;51.102;6.848;2023-02-18T14:53:02;5.43;;;4.33;;
20456;SDS011;10387;51.102;6.848;2023-02-18T14:55:34;5.93;;;4.90;;
20456;SDS011;10387;51.102;6.848;2023-02-18T15:00:39;6.07;;;4.87;;
20456;SDS011;10387;51.102;6.848;2023-02-18T15:03:16;4.53;;;4.13;;
20456;SDS011;10387;51.102;6.848;2023-02-18T15:05:49;5.77;;;4.77;;
20456;SDS011;10387;51.102;6.848;2023-02-18T15:08:22;5.10;;;4.20;;
20456;SDS011;10387;51.102;6.848;2023-02-18T15:10:51;4.70;;;4.20;;
20456;SDS011;10387;51.102;6.848;2023-02-18T15:13:36;5.07;;;4.33;;
20456;SDS011;10387;51.102;6.848;2023-02-18T15:16:10;5.77;;;5.00;;
20456;SDS011;10387;51.102;6.848;2023-02-18T15:18:43;4.73;;;4.30;;
20456;SDS011;10387;51.102;6.848;2023-02-18T15:21:29;5.73;;;5.13;;
20456;SDS011;10387;51.102;6.848;2023-02-18T15:24:19;5.40;;;4.90;;
20456;SDS011;10387;51.102;6.848;2023-02-18T15:26:51;6.50;;;5.90;;
20456;SDS011;10387;51.102;6.848;2023-02-18T15:29:32;6.07;;;5.47;;
20456;SDS011;10387;51.102;6.848;2023-02-18T15:32:01;6.40;;;5.80;;
20456;SDS011;10387;51.102;6.848;2023-02-18T15:34:49;6.77;;;5.50;;
20456;SDS011;10387;51.102;6.848;2023-02-18T15:37:19;7.50;;;6.17;;
20456;SDS011;10387;51.102;6.848;2023-02-18T15:39:45;6.57;;;5.73;;
20456;SDS011;10387;51.102;6.848;2023-02-18T15:42:18;7.30;;;6.43;;
20456;SDS011;10387;51.102;6.848;2023-02-18T15:45:01;7.47;;;5.17;;
20456;SDS011;10387;51.102;6.848;2023-02-18T15:47:48;5.80;;;5.20;;
20456;SDS011;10387;51.102;6.848;2023-02-18T15:50:21;5.43;;;4.93;;
20456;SDS011;10387;51.102;6.848;2023-02-18T15:52:52;7.17;;;5.33;;
20456;SDS011;10387;51.102;6.848;2023-02-18T15:55:26;5.60;;;4.97;;
20456;SDS011;10387;51.102;6.848;2023-02-18T15:58:02;7.73;;;5.53;;
20456;SDS011;10387;51.102;6.848;2023-02-18T16:01:22;5.73;;;4.93;;
20456;SDS011;10387;51.102;6.848;2023-02-18T16:03:26;7.10;;;4.70;;
20456;SDS011;10387;51.102;6.848;2023-02-18T16:09:02;7.10;;;4.40;;
20456;SDS011;10387;51.102;6.848;2023-02-18T16:11:40;6.47;;;4.63;;
20456;SDS011;10387;51.102;6.848;2023-02-18T16:17:19;5.23;;;4.70;;
20456;SDS011;10387;51.102;6.848;2023-02-18T16:19:54;5.97;;;4.90;;
20456;SDS011;10387;51.102;6.848;2023-02-18T16:22:32;6.10;;;4.60;;
20456;SDS011;10387;51.102;6.848;2023-02-18T16:28:04;5.87;;;4.97;;
20456;SDS011;10387;51.102;6.848;2023-02-18T16:30:36;5.13;;;4.57;;
20456;SDS011;10387;51.102;6.848;2023-02-18T16:33:05;5.87;;;4.80;;
20456;SDS011;10387;51.102;6.848;2023-02-18T16:35:31;6.03;;;5.47;;
20456;SDS011;10387;51.102;6.848;2023-02-18T16:37:57;5.90;;;5.00;;
20456;SDS011;10387;51.102;6.848;2023-02-18T16:40:36;6.17;;;4.93;;
20456;SDS011;10387;51.102;6.848;2023-02-18T16:45:50;6.53;;;5.60;;
20456;SDS011;10387;51.102;6.848;2023-02-18T16:48:31;9.20;;;6.60;;
20456;SDS011;10387;51.102;6.848;2023-02-18T16:51:01;8.17;;;6.33;;
20456;SDS011;10387;51.102;6.848;2023-02-18T16:53:29;7.17;;;5.93;;
20456;SDS011;10387;51.102;6.848;2023-02-18T16:55:55;5.83;;;4.83;;
20456;SDS011;10387;51.102;6.848;2023-02-18T16:58:21;5.97;;;5.20;;
20456;SDS011;10387;51.102;6.848;2023-02-18T17:00:46;6.90;;;4.87;;
20456;SDS011;10387;51.102;6.848;2023-02-18T17:03:14;6.00;;;5.40;;
20456;SDS011;10387;51.102;6.848;2023-02-18T17:05:40;7.57;;;5.40;;
20456;SDS011;10387;51.102;6.848;2023-02-18T17:08:19;6.37;;;5.27;;
20456;SDS011;10387;51.102;6.848;2023-02-18T17:10:56;7.13;;;5.83;;
20456;SDS011;10387;51.102;6.848;2023-02-18T17:13:27;7.47;;;6.23;;
20456;SDS011;10387;51.102;6.848;2023-02-18T17:15:55;8.23;;;6.40;;
20456;SDS011;10387;51.102;6.848;2023-02-18T17:18:22;6.73;;;5.93;;
20456;SDS011;10387;51.102;6.848;2023-02-18T17:20:50;7.10;;;6.10;;
20456;SDS011;10387;51.102;6.848;2023-02-18T17:23:17;8.27;;;6.40;;
20456;SDS011;10387;51.102;6.848;2023-02-18T17:25:49;7.60;;;6.73;;
20456;SDS011;10387;51.102;6.848;2023-02-18T17:28:16;7.60;;;6.40;;
20456;SDS011;10387;51.102;6.848;2023-02-18T17:30:44;8.97;;;7.10;;
20456;SDS011;10387;51.102;6.848;2023-02-18T17:33:14;9.03;;;7.23;;
20456;SDS011;10387;51.102;6.848;2023-02-18T17:35:42;7.80;;;6.63;;
20456;SDS011;10387;51.102;6.848;2023-02-18T17:38:11;7.80;;;7.00;;
20456;SDS011;10387;51.102;6.848;2023-02-18T17:40:39;8.10;;;7.30;;
20456;SDS011;10387;51.102;6.848;2023-02-18T17:43:04;10.07;;;8.13;;
20456;SDS011;10387;51.102;6.848;2023-02-18T17:45:32;9.33;;;8.30;;